Elizabeth City Cg Air Station Regional Airport
KECG : now visible

Airfield :











YOU CAN JOIN US ON...

 
LOGIN :

Register | Disclaimer

   EN    FR    IT 

 









Legend :    VFR   Marginal VFR   IFR   Intensive IFR   Very Intensive IFR
Visi :
Ceiling :
>= 8 km
>= 3000ft
5 to 8 km
1000 to 3000 ft
1500m to 5 km
500 to 1000 ft
800 to 1500m
200 to 500 ft
< 800m
< 200 ft
Symbols :   Thunderstorms  Fog  Heavy snow  Heavy precipitations  Wind > 20 kt






- Airport Elevation : 12 ft


KECG - Elizabeth City Cg Air Station Regional

CURRENT METAR :
  • 190154Z 00000KT 9SM SCT007 OVC043 08/07 A2978 RMK AO2 RAE00 SLP085 P0000 T00830067

EXPIRED METARs :
  • 190114Z 00000KT 10SM BKN006 OVC055 08/07 A2979 RMK AO2 RAE00 P0000 T00830067
  • 190054Z 06005KT 8SM -RA FEW006 OVC055 08/06 A2978 RMK AO2 RAE32B42 SLP083 P0001 T00830061
  • 182354Z AUTO 00000KT 9SM -RA OVC006 08/07 A2979 RMK AO2 SLP089 P0001 60001 T00830067 10094 20078 51009

TAF KECG
Valid from the 19 at 02:00 until the 20 at 00:00 UTC


190155Z 1902/1924 00000KT P6SM VCSH BKN006
TEMPO 1902/1904 4SM RADZ BR SCT005
FM190400 VRB03KT 4SM BR SCT003 BKN004
FM191400 VRB03KT P6SM SCT007 BKN012
FM191500 30005KT P6SM OVC035
FM191700 28004KT P6SM BKN090



MET'MAP, your aeronautical weather chart ! - Copyright ORBIFLY December 2007 - Disclaimer

ORBIFLY MET'MAP TEAM :

Programming & Development : Alexandra Zaïnal
Concept & Development : Baudouin d'Aumeries
Co-Development & Prog : Marc-Olivier Méhu
Technical & hardware support : Manuel Goepfert

Contact : metmap@orbifly.com




SOURCES & CREDITS :

   NOAA       Earth
Advisory